sensor_id;sensor_type;location;lat;lon;timestamp;P1;durP1;ratioP1;P2;durP2;ratioP2
73100;SDS011;61288;53.446;-2.266;2024-03-25T00:01:53;11.75;;;3.50;;
73100;SDS011;61288;53.446;-2.266;2024-03-25T00:04:19;12.68;;;3.20;;
73100;SDS011;61288;53.446;-2.266;2024-03-25T00:06:46;12.85;;;3.65;;
73100;SDS011;61288;53.446;-2.266;2024-03-25T00:09:11;12.20;;;3.25;;
73100;SDS011;61288;53.446;-2.266;2024-03-25T00:11:40;10.50;;;3.42;;
73100;SDS011;61288;53.446;-2.266;2024-03-25T00:14:07;9.50;;;2.83;;
73100;SDS011;61288;53.446;-2.266;2024-03-25T00:16:33;15.07;;;3.22;;
73100;SDS011;61288;53.446;-2.266;2024-03-25T00:18:59;8.82;;;2.83;;
73100;SDS011;61288;53.446;-2.266;2024-03-25T00:21:24;8.18;;;2.65;;
73100;SDS011;61288;53.446;-2.266;2024-03-25T00:23:50;12.52;;;3.00;;
73100;SDS011;61288;53.446;-2.266;2024-03-25T00:26:15;9.68;;;2.63;;
73100;SDS011;61288;53.446;-2.266;2024-03-25T00:28:41;9.38;;;2.53;;
73100;SDS011;61288;53.446;-2.266;2024-03-25T00:33:48;8.43;;;2.50;;
73100;SDS011;61288;53.446;-2.266;2024-03-25T00:36:13;13.45;;;2.90;;
73100;SDS011;61288;53.446;-2.266;2024-03-25T00:38:39;10.95;;;3.00;;
73100;SDS011;61288;53.446;-2.266;2024-03-25T00:41:05;8.50;;;2.20;;
73100;SDS011;61288;53.446;-2.266;2024-03-25T00:43:31;9.80;;;2.42;;
73100;SDS011;61288;53.446;-2.266;2024-03-25T00:45:56;9.88;;;2.88;;
73100;SDS011;61288;53.446;-2.266;2024-03-25T00:48:25;11.73;;;2.42;;
73100;SDS011;61288;53.446;-2.266;2024-03-25T00:50:50;10.00;;;2.47;;
73100;SDS011;61288;53.446;-2.266;2024-03-25T00:53:16;8.68;;;2.60;;
73100;SDS011;61288;53.446;-2.266;2024-03-25T00:55:43;9.10;;;2.25;;
73100;SDS011;61288;53.446;-2.266;2024-03-25T00:58:10;12.13;;;2.42;;
73100;SDS011;61288;53.446;-2.266;2024-03-25T01:00:35;7.35;;;2.17;;
73100;SDS011;61288;53.446;-2.266;2024-03-25T01:03:01;6.70;;;2.13;;
73100;SDS011;61288;53.446;-2.266;2024-03-25T01:05:27;10.98;;;2.17;;
73100;SDS011;61288;53.446;-2.266;2024-03-25T01:07:52;10.15;;;2.60;;
73100;SDS011;61288;53.446;-2.266;2024-03-25T01:10:18;9.95;;;2.30;;
73100;SDS011;61288;53.446;-2.266;2024-03-25T01:12:43;12.20;;;2.40;;
73100;SDS011;61288;53.446;-2.266;2024-03-25T01:15:09;9.70;;;2.60;;
73100;SDS011;61288;53.446;-2.266;2024-03-25T01:17:37;10.00;;;1.95;;
73100;SDS011;61288;53.446;-2.266;2024-03-25T01:20:03;12.15;;;2.70;;
73100;SDS011;61288;53.446;-2.266;2024-03-25T01:22:30;9.68;;;2.45;;
73100;SDS011;61288;53.446;-2.266;2024-03-25T01:24:56;7.95;;;2.15;;
73100;SDS011;61288;53.446;-2.266;2024-03-25T01:27:22;8.60;;;2.42;;
73100;SDS011;61288;53.446;-2.266;2024-03-25T01:29:48;8.10;;;2.00;;
73100;SDS011;61288;53.446;-2.266;2024-03-25T01:32:13;8.80;;;2.30;;
73100;SDS011;61288;53.446;-2.266;2024-03-25T01:34:39;12.80;;;2.97;;
73100;SDS011;61288;53.446;-2.266;2024-03-25T01:37:05;10.52;;;2.42;;
73100;SDS011;61288;53.446;-2.266;2024-03-25T01:39:31;8.43;;;1.95;;
73100;SDS011;61288;53.446;-2.266;2024-03-25T01:41:56;10.30;;;2.30;;
73100;SDS011;61288;53.446;-2.266;2024-03-25T01:44:22;10.63;;;2.33;;
73100;SDS011;61288;53.446;-2.266;2024-03-25T01:46:47;8.60;;;2.30;;
73100;SDS011;61288;53.446;-2.266;2024-03-25T01:49:13;9.48;;;2.95;;
73100;SDS011;61288;53.446;-2.266;2024-03-25T01:51:39;9.65;;;3.05;;
73100;SDS011;61288;53.446;-2.266;2024-03-25T01:54:07;7.53;;;2.15;;
73100;SDS011;61288;53.446;-2.266;2024-03-25T01:56:34;6.03;;;2.00;;
73100;SDS011;61288;53.446;-2.266;2024-03-25T01:59:01;8.07;;;2.20;;
73100;SDS011;61288;53.446;-2.266;2024-03-25T02:01:28;8.38;;;2.40;;
73100;SDS011;61288;53.446;-2.266;2024-03-25T02:03:54;9.43;;;2.25;;
73100;SDS011;61288;53.446;-2.266;2024-03-25T02:06:20;15.98;;;3.25;;
73100;SDS011;61288;53.446;-2.266;2024-03-25T02:08:47;9.57;;;2.35;;
73100;SDS011;61288;53.446;-2.266;2024-03-25T02:11:14;8.95;;;2.17;;
73100;SDS011;61288;53.446;-2.266;2024-03-25T02:13:40;9.85;;;2.50;;
73100;SDS011;61288;53.446;-2.266;2024-03-25T02:16:05;7.93;;;2.05;;
73100;SDS011;61288;53.446;-2.266;2024-03-25T02:18:31;8.30;;;1.98;;
73100;SDS011;61288;53.446;-2.266;2024-03-25T02:20:57;9.88;;;1.90;;
73100;SDS011;61288;53.446;-2.266;2024-03-25T02:23:23;12.18;;;2.17;;
73100;SDS011;61288;53.446;-2.266;2024-03-25T02:25:50;9.18;;;2.00;;
73100;SDS011;61288;53.446;-2.266;2024-03-25T02:28:16;7.38;;;1.80;;
73100;SDS011;61288;53.446;-2.266;2024-03-25T02:30:43;10.20;;;2.30;;
73100;SDS011;61288;53.446;-2.266;2024-03-25T02:33:08;7.47;;;2.22;;
73100;SDS011;61288;53.446;-2.266;2024-03-25T02:35:34;10.00;;;2.65;;
73100;SDS011;61288;53.446;-2.266;2024-03-25T02:38:01;9.45;;;2.17;;
73100;SDS011;61288;53.446;-2.266;2024-03-25T02:40:28;8.10;;;2.20;;
73100;SDS011;61288;53.446;-2.266;2024-03-25T02:42:55;11.55;;;2.55;;
73100;SDS011;61288;53.446;-2.266;2024-03-25T02:45:20;8.52;;;1.85;;
73100;SDS011;61288;53.446;-2.266;2024-03-25T02:47:46;9.20;;;2.28;;
73100;SDS011;61288;53.446;-2.266;2024-03-25T02:50:12;7.85;;;2.08;;
73100;SDS011;61288;53.446;-2.266;2024-03-25T02:52:37;11.48;;;2.33;;
73100;SDS011;61288;53.446;-2.266;2024-03-25T02:55:03;9.68;;;2.50;;
73100;SDS011;61288;53.446;-2.266;2024-03-25T02:57:28;13.20;;;2.72;;
73100;SDS011;61288;53.446;-2.266;2024-03-25T02:59:54;6.85;;;2.47;;
73100;SDS011;61288;53.446;-2.266;2024-03-25T03:02:20;9.82;;;2.88;;
73100;SDS011;61288;53.446;-2.266;2024-03-25T03:04:45;7.70;;;2.20;;
73100;SDS011;61288;53.446;-2.266;2024-03-25T03:07:11;9.27;;;2.92;;
73100;SDS011;61288;53.446;-2.266;2024-03-25T03:09:38;8.45;;;2.55;;
73100;SDS011;61288;53.446;-2.266;2024-03-25T03:12:03;8.32;;;2.30;;
73100;SDS011;61288;53.446;-2.266;2024-03-25T03:14:29;13.15;;;3.30;;
73100;SDS011;61288;53.446;-2.266;2024-03-25T03:16:55;9.70;;;3.03;;
73100;SDS011;61288;53.446;-2.266;2024-03-25T03:19:25;9.00;;;2.53;;
73100;SDS011;61288;53.446;-2.266;2024-03-25T03:21:51;8.30;;;2.53;;
73100;SDS011;61288;53.446;-2.266;2024-03-25T03:24:17;10.15;;;2.60;;
73100;SDS011;61288;53.446;-2.266;2024-03-25T03:26:43;14.23;;;3.17;;
73100;SDS011;61288;53.446;-2.266;2024-03-25T03:29:09;11.15;;;2.95;;
73100;SDS011;61288;53.446;-2.266;2024-03-25T03:31:35;8.40;;;2.50;;
73100;SDS011;61288;53.446;-2.266;2024-03-25T03:34:01;9.90;;;3.08;;
73100;SDS011;61288;53.446;-2.266;2024-03-25T03:36:27;10.73;;;3.20;;
73100;SDS011;61288;53.446;-2.266;2024-03-25T03:38:53;10.60;;;3.13;;
73100;SDS011;61288;53.446;-2.266;2024-03-25T03:41:19;15.30;;;3.47;;
73100;SDS011;61288;53.446;-2.266;2024-03-25T03:43:44;8.68;;;2.90;;
73100;SDS011;61288;53.446;-2.266;2024-03-25T03:46:11;10.80;;;3.08;;
73100;SDS011;61288;53.446;-2.266;2024-03-25T03:48:37;14.10;;;4.30;;
73100;SDS011;61288;53.446;-2.266;2024-03-25T03:51:04;11.70;;;4.10;;
73100;SDS011;61288;53.446;-2.266;2024-03-25T03:53:30;11.73;;;3.88;;
73100;SDS011;61288;53.446;-2.266;2024-03-25T03:55:56;11.00;;;3.50;;
73100;SDS011;61288;53.446;-2.266;2024-03-25T03:58:23;12.77;;;3.80;;
73100;SDS011;61288;53.446;-2.266;2024-03-25T04:00:49;12.73;;;3.92;;
73100;SDS011;61288;53.446;-2.266;2024-03-25T04:03:15;13.57;;;3.53;;
73100;SDS011;61288;53.446;-2.266;2024-03-25T04:05:41;12.90;;;4.07;;
73100;SDS011;61288;53.446;-2.266;2024-03-25T04:08:08;12.30;;;3.58;;
73100;SDS011;61288;53.446;-2.266;2024-03-25T04:10:34;14.15;;;3.80;;
73100;SDS011;61288;53.446;-2.266;2024-03-25T04:13:00;12.35;;;3.95;;
73100;SDS011;61288;53.446;-2.266;2024-03-25T04:15:26;16.92;;;4.53;;
73100;SDS011;61288;53.446;-2.266;2024-03-25T04:17:52;12.63;;;4.47;;
73100;SDS011;61288;53.446;-2.266;2024-03-25T04:20:18;12.55;;;3.75;;
73100;SDS011;61288;53.446;-2.266;2024-03-25T04:22:45;16.48;;;4.95;;
73100;SDS011;61288;53.446;-2.266;2024-03-25T04:25:11;17.20;;;3.75;;
73100;SDS011;61288;53.446;-2.266;2024-03-25T04:27:39;11.73;;;3.50;;
73100;SDS011;61288;53.446;-2.266;2024-03-25T04:30:06;14.98;;;4.32;;
73100;SDS011;61288;53.446;-2.266;2024-03-25T04:32:32;14.32;;;4.07;;
73100;SDS011;61288;53.446;-2.266;2024-03-25T04:34:58;11.45;;;3.63;;
73100;SDS011;61288;53.446;-2.266;2024-03-25T04:37:24;12.95;;;3.45;;
73100;SDS011;61288;53.446;-2.266;2024-03-25T04:39:49;11.15;;;3.72;;
73100;SDS011;61288;53.446;-2.266;2024-03-25T04:42:15;10.60;;;3.60;;
73100;SDS011;61288;53.446;-2.266;2024-03-25T04:44:40;13.00;;;3.42;;
73100;SDS011;61288;53.446;-2.266;2024-03-25T04:47:06;13.18;;;3.58;;
73100;SDS011;61288;53.446;-2.266;2024-03-25T04:49:31;9.65;;;3.10;;
73100;SDS011;61288;53.446;-2.266;2024-03-25T04:51:57;9.95;;;2.92;;
73100;SDS011;61288;53.446;-2.266;2024-03-25T04:54:23;11.63;;;3.50;;
73100;SDS011;61288;53.446;-2.266;2024-03-25T04:56:48;10.80;;;3.47;;
73100;SDS011;61288;53.446;-2.266;2024-03-25T04:59:14;11.98;;;3.00;;
73100;SDS011;61288;53.446;-2.266;2024-03-25T05:01:39;11.73;;;3.50;;
73100;SDS011;61288;53.446;-2.266;2024-03-25T05:04:04;9.73;;;3.35;;
73100;SDS011;61288;53.446;-2.266;2024-03-25T05:06:34;13.02;;;3.33;;
73100;SDS011;61288;53.446;-2.266;2024-03-25T05:09:00;10.75;;;3.25;;
73100;SDS011;61288;53.446;-2.266;2024-03-25T05:11:27;8.93;;;3.13;;
73100;SDS011;61288;53.446;-2.266;2024-03-25T05:13:52;12.27;;;3.20;;
73100;SDS011;61288;53.446;-2.266;2024-03-25T05:16:17;11.25;;;3.20;;
73100;SDS011;61288;53.446;-2.266;2024-03-25T05:18:43;9.07;;;2.97;;
73100;SDS011;61288;53.446;-2.266;2024-03-25T05:21:08;11.23;;;3.33;;
73100;SDS011;61288;53.446;-2.266;2024-03-25T05:23:34;9.90;;;3.13;;
73100;SDS011;61288;53.446;-2.266;2024-03-25T05:26:00;9.65;;;2.58;;
73100;SDS011;61288;53.446;-2.266;2024-03-25T05:28:25;9.25;;;2.58;;
73100;SDS011;61288;53.446;-2.266;2024-03-25T05:30:51;5.38;;;1.70;;
73100;SDS011;61288;53.446;-2.266;2024-03-25T05:33:16;7.03;;;2.03;;
73100;SDS011;61288;53.446;-2.266;2024-03-25T05:35:42;5.85;;;1.60;;
73100;SDS011;61288;53.446;-2.266;2024-03-25T05:38:07;8.93;;;1.67;;
73100;SDS011;61288;53.446;-2.266;2024-03-25T05:40:33;5.70;;;1.63;;
73100;SDS011;61288;53.446;-2.266;2024-03-25T05:42:58;4.70;;;1.60;;
73100;SDS011;61288;53.446;-2.266;2024-03-25T05:45:24;4.35;;;1.55;;
73100;SDS011;61288;53.446;-2.266;2024-03-25T05:47:50;5.95;;;1.70;;
73100;SDS011;61288;53.446;-2.266;2024-03-25T05:50:16;4.35;;;1.48;;
73100;SDS011;61288;53.446;-2.266;2024-03-25T05:52:41;6.70;;;1.73;;
73100;SDS011;61288;53.446;-2.266;2024-03-25T05:55:07;4.82;;;1.58;;
73100;SDS011;61288;53.446;-2.266;2024-03-25T05:57:35;5.13;;;1.55;;
73100;SDS011;61288;53.446;-2.266;2024-03-25T06:00:02;3.45;;;1.30;;
73100;SDS011;61288;53.446;-2.266;2024-03-25T06:02:28;5.80;;;1.80;;
73100;SDS011;61288;53.446;-2.266;2024-03-25T06:04:55;5.30;;;1.63;;
73100;SDS011;61288;53.446;-2.266;2024-03-25T06:07:21;6.10;;;1.70;;
73100;SDS011;61288;53.446;-2.266;2024-03-25T06:09:47;4.28;;;1.50;;
73100;SDS011;61288;53.446;-2.266;2024-03-25T06:12:13;7.97;;;1.50;;
73100;SDS011;61288;53.446;-2.266;2024-03-25T06:14:39;6.75;;;1.77;;
73100;SDS011;61288;53.446;-2.266;2024-03-25T06:17:05;6.55;;;1.83;;
73100;SDS011;61288;53.446;-2.266;2024-03-25T06:19:30;6.85;;;1.63;;
73100;SDS011;61288;53.446;-2.266;2024-03-25T06:21:56;8.57;;;1.92;;
73100;SDS011;61288;53.446;-2.266;2024-03-25T06:24:21;8.45;;;2.10;;
73100;SDS011;61288;53.446;-2.266;2024-03-25T06:26:47;8.68;;;2.05;;
73100;SDS011;61288;53.446;-2.266;2024-03-25T06:29:12;6.38;;;2.00;;
73100;SDS011;61288;53.446;-2.266;2024-03-25T06:31:38;10.60;;;2.58;;
73100;SDS011;61288;53.446;-2.266;2024-03-25T06:34:22;7.18;;;2.17;;
73100;SDS011;61288;53.446;-2.266;2024-03-25T06:36:48;7.43;;;2.30;;
73100;SDS011;61288;53.446;-2.266;2024-03-25T06:39:14;7.60;;;1.90;;
73100;SDS011;61288;53.446;-2.266;2024-03-25T06:41:40;8.80;;;2.30;;
73100;SDS011;61288;53.446;-2.266;2024-03-25T06:44:06;8.57;;;2.95;;
73100;SDS011;61288;53.446;-2.266;2024-03-25T06:46:32;7.95;;;2.40;;
73100;SDS011;61288;53.446;-2.266;2024-03-25T06:48:58;9.35;;;2.42;;
73100;SDS011;61288;53.446;-2.266;2024-03-25T06:51:23;8.32;;;2.20;;
73100;SDS011;61288;53.446;-2.266;2024-03-25T06:53:49;12.57;;;2.80;;
73100;SDS011;61288;53.446;-2.266;2024-03-25T06:56:15;7.55;;;2.53;;
73100;SDS011;61288;53.446;-2.266;2024-03-25T06:58:41;6.60;;;2.25;;
73100;SDS011;61288;53.446;-2.266;2024-03-25T07:01:08;7.25;;;2.30;;
73100;SDS011;61288;53.446;-2.266;2024-03-25T07:03:37;9.02;;;2.10;;
73100;SDS011;61288;53.446;-2.266;2024-03-25T07:06:03;6.65;;;2.13;;
73100;SDS011;61288;53.446;-2.266;2024-03-25T07:08:29;8.40;;;1.90;;
73100;SDS011;61288;53.446;-2.266;2024-03-25T07:10:58;6.53;;;1.98;;
73100;SDS011;61288;53.446;-2.266;2024-03-25T07:13:24;6.75;;;2.22;;
73100;SDS011;61288;53.446;-2.266;2024-03-25T07:15:50;5.15;;;1.88;;
73100;SDS011;61288;53.446;-2.266;2024-03-25T07:18:15;6.20;;;2.20;;
73100;SDS011;61288;53.446;-2.266;2024-03-25T07:20:41;5.20;;;1.83;;
73100;SDS011;61288;53.446;-2.266;2024-03-25T07:23:08;5.07;;;1.75;;
73100;SDS011;61288;53.446;-2.266;2024-03-25T07:25:34;5.40;;;1.52;;
73100;SDS011;61288;53.446;-2.266;2024-03-25T07:28:01;4.95;;;1.85;;
73100;SDS011;61288;53.446;-2.266;2024-03-25T07:30:27;6.40;;;1.80;;
73100;SDS011;61288;53.446;-2.266;2024-03-25T07:32:54;4.97;;;1.58;;
73100;SDS011;61288;53.446;-2.266;2024-03-25T07:35:20;4.80;;;1.75;;
73100;SDS011;61288;53.446;-2.266;2024-03-25T07:37:45;5.72;;;1.90;;
73100;SDS011;61288;53.446;-2.266;2024-03-25T07:40:11;4.40;;;1.80;;
73100;SDS011;61288;53.446;-2.266;2024-03-25T07:42:40;6.32;;;2.28;;
73100;SDS011;61288;53.446;-2.266;2024-03-25T07:45:06;5.47;;;1.75;;
73100;SDS011;61288;53.446;-2.266;2024-03-25T07:47:32;5.47;;;1.70;;
73100;SDS011;61288;53.446;-2.266;2024-03-25T07:49:58;5.07;;;1.63;;
73100;SDS011;61288;53.446;-2.266;2024-03-25T07:52:24;4.90;;;1.73;;
73100;SDS011;61288;53.446;-2.266;2024-03-25T07:54:50;4.65;;;1.65;;
73100;SDS011;61288;53.446;-2.266;2024-03-25T07:57:16;6.28;;;2.00;;
73100;SDS011;61288;53.446;-2.266;2024-03-25T07:59:42;6.03;;;1.88;;
73100;SDS011;61288;53.446;-2.266;2024-03-25T08:02:08;6.05;;;1.70;;
73100;SDS011;61288;53.446;-2.266;2024-03-25T08:04:33;5.55;;;1.75;;
73100;SDS011;61288;53.446;-2.266;2024-03-25T08:06:59;6.70;;;2.00;;
73100;SDS011;61288;53.446;-2.266;2024-03-25T08:09:24;8.15;;;2.15;;
73100;SDS011;61288;53.446;-2.266;2024-03-25T08:11:50;5.70;;;1.98;;
73100;SDS011;61288;53.446;-2.266;2024-03-25T08:14:15;5.50;;;1.60;;
73100;SDS011;61288;53.446;-2.266;2024-03-25T08:16:41;4.38;;;1.55;;
73100;SDS011;61288;53.446;-2.266;2024-03-25T08:19:06;4.70;;;1.77;;
73100;SDS011;61288;53.446;-2.266;2024-03-25T08:21:32;6.15;;;1.90;;
73100;SDS011;61288;53.446;-2.266;2024-03-25T08:23:58;4.60;;;1.70;;
73100;SDS011;61288;53.446;-2.266;2024-03-25T08:26:23;7.13;;;1.90;;
73100;SDS011;61288;53.446;-2.266;2024-03-25T08:28:48;4.72;;;2.15;;
73100;SDS011;61288;53.446;-2.266;2024-03-25T08:31:14;6.50;;;2.30;;
73100;SDS011;61288;53.446;-2.266;2024-03-25T08:33:40;5.32;;;2.10;;
73100;SDS011;61288;53.446;-2.266;2024-03-25T08:36:06;6.20;;;1.83;;
73100;SDS011;61288;53.446;-2.266;2024-03-25T08:38:32;9.52;;;1.90;;
73100;SDS011;61288;53.446;-2.266;2024-03-25T08:40:58;8.52;;;2.03;;
73100;SDS011;61288;53.446;-2.266;2024-03-25T08:43:23;6.03;;;1.75;;
73100;SDS011;61288;53.446;-2.266;2024-03-25T08:45:49;6.90;;;2.20;;
73100;SDS011;61288;53.446;-2.266;2024-03-25T08:48:15;5.13;;;1.88;;
73100;SDS011;61288;53.446;-2.266;2024-03-25T08:50:40;7.63;;;2.03;;
73100;SDS011;61288;53.446;-2.266;2024-03-25T08:53:06;6.60;;;1.90;;
73100;SDS011;61288;53.446;-2.266;2024-03-25T08:55:32;5.30;;;1.85;;
73100;SDS011;61288;53.446;-2.266;2024-03-25T08:57:57;7.25;;;1.98;;
73100;SDS011;61288;53.446;-2.266;2024-03-25T09:00:24;8.98;;;2.20;;
73100;SDS011;61288;53.446;-2.266;2024-03-25T09:02:50;7.53;;;1.77;;
73100;SDS011;61288;53.446;-2.266;2024-03-25T09:05:15;6.32;;;1.85;;
73100;SDS011;61288;53.446;-2.266;2024-03-25T09:07:44;6.35;;;1.80;;
73100;SDS011;61288;53.446;-2.266;2024-03-25T09:10:10;7.40;;;2.28;;
73100;SDS011;61288;53.446;-2.266;2024-03-25T09:12:55;12.57;;;2.30;;
73100;SDS011;61288;53.446;-2.266;2024-03-25T09:15:20;10.27;;;2.10;;
73100;SDS011;61288;53.446;-2.266;2024-03-25T09:17:46;7.50;;;2.20;;
73100;SDS011;61288;53.446;-2.266;2024-03-25T09:20:11;5.40;;;1.48;;
73100;SDS011;61288;53.446;-2.266;2024-03-25T09:22:43;5.78;;;1.70;;
73100;SDS011;61288;53.446;-2.266;2024-03-25T09:25:09;5.65;;;1.92;;
73100;SDS011;61288;53.446;-2.266;2024-03-25T09:27:35;8.70;;;1.88;;
73100;SDS011;61288;53.446;-2.266;2024-03-25T09:30:00;5.47;;;1.90;;
73100;SDS011;61288;53.446;-2.266;2024-03-25T09:32:26;5.10;;;1.80;;
73100;SDS011;61288;53.446;-2.266;2024-03-25T09:34:52;3.97;;;1.63;;
73100;SDS011;61288;53.446;-2.266;2024-03-25T09:37:17;5.13;;;1.60;;
73100;SDS011;61288;53.446;-2.266;2024-03-25T09:39:43;8.13;;;1.60;;
73100;SDS011;61288;53.446;-2.266;2024-03-25T09:42:08;5.55;;;1.85;;
73100;SDS011;61288;53.446;-2.266;2024-03-25T09:44:40;3.60;;;1.20;;
73100;SDS011;61288;53.446;-2.266;2024-03-25T09:47:06;5.40;;;1.48;;
73100;SDS011;61288;53.446;-2.266;2024-03-25T09:49:34;6.85;;;1.63;;
73100;SDS011;61288;53.446;-2.266;2024-03-25T09:52:01;4.22;;;1.42;;
73100;SDS011;61288;53.446;-2.266;2024-03-25T09:54:27;3.92;;;1.60;;
73100;SDS011;61288;53.446;-2.266;2024-03-25T09:56:56;7.45;;;1.60;;
73100;SDS011;61288;53.446;-2.266;2024-03-25T09:59:22;3.45;;;1.40;;
73100;SDS011;61288;53.446;-2.266;2024-03-25T10:01:47;5.32;;;1.52;;
73100;SDS011;61288;53.446;-2.266;2024-03-25T10:04:13;4.20;;;1.30;;
73100;SDS011;61288;53.446;-2.266;2024-03-25T10:06:39;3.50;;;1.52;;
73100;SDS011;61288;53.446;-2.266;2024-03-25T10:09:05;5.80;;;1.23;;
73100;SDS011;61288;53.446;-2.266;2024-03-25T10:11:32;3.35;;;1.17;;
73100;SDS011;61288;53.446;-2.266;2024-03-25T10:14:03;3.60;;;1.23;;
73100;SDS011;61288;53.446;-2.266;2024-03-25T10:16:29;4.63;;;1.20;;
73100;SDS011;61288;53.446;-2.266;2024-03-25T10:18:54;5.25;;;1.42;;
73100;SDS011;61288;53.446;-2.266;2024-03-25T10:21:20;2.13;;;1.10;;
73100;SDS011;61288;53.446;-2.266;2024-03-25T10:23:47;2.25;;;1.20;;
73100;SDS011;61288;53.446;-2.266;2024-03-25T10:26:29;3.03;;;1.10;;
73100;SDS011;61288;53.446;-2.266;2024-03-25T10:29:03;4.88;;;1.33;;
73100;SDS011;61288;53.446;-2.266;2024-03-25T10:31:31;3.00;;;1.00;;
73100;SDS011;61288;53.446;-2.266;2024-03-25T10:33:58;4.72;;;1.35;;
73100;SDS011;61288;53.446;-2.266;2024-03-25T10:36:24;2.35;;;0.90;;
73100;SDS011;61288;53.446;-2.266;2024-03-25T10:38:56;3.55;;;1.40;;
73100;SDS011;61288;53.446;-2.266;2024-03-25T10:41:27;2.70;;;1.30;;
73100;SDS011;61288;53.446;-2.266;2024-03-25T10:43:54;3.78;;;1.40;;
73100;SDS011;61288;53.446;-2.266;2024-03-25T10:46:22;3.00;;;1.30;;
73100;SDS011;61288;53.446;-2.266;2024-03-25T10:48:51;2.75;;;1.33;;
73100;SDS011;61288;53.446;-2.266;2024-03-25T10:51:22;3.05;;;1.30;;
73100;SDS011;61288;53.446;-2.266;2024-03-25T10:53:51;2.78;;;1.10;;
73100;SDS011;61288;53.446;-2.266;2024-03-25T10:56:19;2.30;;;1.10;;
73100;SDS011;61288;53.446;-2.266;2024-03-25T10:58:49;2.65;;;1.30;;
73100;SDS011;61288;53.446;-2.266;2024-03-25T11:01:18;4.88;;;1.40;;
73100;SDS011;61288;53.446;-2.266;2024-03-25T11:03:47;3.35;;;1.30;;
73100;SDS011;61288;53.446;-2.266;2024-03-25T11:06:14;2.28;;;1.10;;
73100;SDS011;61288;53.446;-2.266;2024-03-25T11:08:40;3.55;;;1.30;;
73100;SDS011;61288;53.446;-2.266;2024-03-25T11:11:06;3.53;;;1.48;;
73100;SDS011;61288;53.446;-2.266;2024-03-25T11:13:32;4.93;;;1.40;;
73100;SDS011;61288;53.446;-2.266;2024-03-25T11:15:59;3.10;;;1.30;;
73100;SDS011;61288;53.446;-2.266;2024-03-25T11:18:27;4.60;;;1.48;;
73100;SDS011;61288;53.446;-2.266;2024-03-25T11:21:04;4.38;;;1.50;;
73100;SDS011;61288;53.446;-2.266;2024-03-25T11:23:43;3.85;;;1.33;;
73100;SDS011;61288;53.446;-2.266;2024-03-25T11:26:24;3.65;;;1.48;;
73100;SDS011;61288;53.446;-2.266;2024-03-25T11:28:52;4.07;;;1.50;;
73100;SDS011;61288;53.446;-2.266;2024-03-25T11:31:20;3.83;;;1.50;;
73100;SDS011;61288;53.446;-2.266;2024-03-25T11:33:49;5.25;;;1.80;;
73100;SDS011;61288;53.446;-2.266;2024-03-25T11:36:15;4.25;;;1.55;;
73100;SDS011;61288;53.446;-2.266;2024-03-25T11:38:43;4.47;;;1.85;;
73100;SDS011;61288;53.446;-2.266;2024-03-25T11:41:10;2.67;;;1.40;;
73100;SDS011;61288;53.446;-2.266;2024-03-25T11:43:36;4.75;;;1.77;;
73100;SDS011;61288;53.446;-2.266;2024-03-25T11:46:02;6.53;;;1.60;;
73100;SDS011;61288;53.446;-2.266;2024-03-25T11:48:31;5.95;;;1.55;;
73100;SDS011;61288;53.446;-2.266;2024-03-25T11:50:57;6.70;;;1.90;;
73100;SDS011;61288;53.446;-2.266;2024-03-25T11:53:23;4.32;;;1.70;;
73100;SDS011;61288;53.446;-2.266;2024-03-25T11:55:49;5.00;;;1.70;;
73100;SDS011;61288;53.446;-2.266;2024-03-25T11:58:16;4.80;;;1.80;;
73100;SDS011;61288;53.446;-2.266;2024-03-25T12:00:43;5.40;;;1.60;;
73100;SDS011;61288;53.446;-2.266;2024-03-25T12:03:14;4.95;;;1.77;;
73100;SDS011;61288;53.446;-2.266;2024-03-25T12:05:44;5.90;;;1.60;;
73100;SDS011;61288;53.446;-2.266;2024-03-25T12:08:10;6.90;;;1.70;;
73100;SDS011;61288;53.446;-2.266;2024-03-25T12:10:37;4.90;;;1.55;;
73100;SDS011;61288;53.446;-2.266;2024-03-25T12:13:21;3.05;;;1.40;;
73100;SDS011;61288;53.446;-2.266;2024-03-25T12:15:49;5.88;;;1.70;;
73100;SDS011;61288;53.446;-2.266;2024-03-25T12:18:15;7.32;;;2.10;;
73100;SDS011;61288;53.446;-2.266;2024-03-25T12:20:41;5.18;;;1.98;;
73100;SDS011;61288;53.446;-2.266;2024-03-25T12:23:07;5.32;;;1.60;;
73100;SDS011;61288;53.446;-2.266;2024-03-25T12:25:32;5.78;;;2.05;;
73100;SDS011;61288;53.446;-2.266;2024-03-25T12:27:58;6.95;;;2.10;;
73100;SDS011;61288;53.446;-2.266;2024-03-25T12:30:24;6.00;;;1.80;;
73100;SDS011;61288;53.446;-2.266;2024-03-25T12:32:50;5.53;;;1.65;;
73100;SDS011;61288;53.446;-2.266;2024-03-25T12:35:16;5.57;;;1.90;;
73100;SDS011;61288;53.446;-2.266;2024-03-25T12:37:44;7.85;;;2.00;;
73100;SDS011;61288;53.446;-2.266;2024-03-25T12:40:11;5.18;;;1.83;;
73100;SDS011;61288;53.446;-2.266;2024-03-25T12:42:54;4.82;;;1.63;;
73100;SDS011;61288;53.446;-2.266;2024-03-25T12:45:20;8.82;;;2.17;;
73100;SDS011;61288;53.446;-2.266;2024-03-25T12:47:48;6.53;;;2.03;;
73100;SDS011;61288;53.446;-2.266;2024-03-25T12:50:17;7.82;;;2.10;;
73100;SDS011;61288;53.446;-2.266;2024-03-25T12:52:44;5.75;;;1.85;;
73100;SDS011;61288;53.446;-2.266;2024-03-25T12:55:10;5.00;;;1.60;;
73100;SDS011;61288;53.446;-2.266;2024-03-25T12:57:36;10.80;;;2.10;;
73100;SDS011;61288;53.446;-2.266;2024-03-25T13:00:02;10.35;;;2.20;;
73100;SDS011;61288;53.446;-2.266;2024-03-25T13:02:29;6.90;;;2.13;;
73100;SDS011;61288;53.446;-2.266;2024-03-25T13:04:56;7.20;;;2.20;;
73100;SDS011;61288;53.446;-2.266;2024-03-25T13:07:21;6.28;;;2.33;;
73100;SDS011;61288;53.446;-2.266;2024-03-25T13:09:47;7.57;;;2.03;;
73100;SDS011;61288;53.446;-2.266;2024-03-25T13:12:12;6.90;;;2.30;;
73100;SDS011;61288;53.446;-2.266;2024-03-25T13:14:38;6.50;;;2.05;;
73100;SDS011;61288;53.446;-2.266;2024-03-25T13:17:03;6.60;;;2.20;;
73100;SDS011;61288;53.446;-2.266;2024-03-25T13:19:29;8.18;;;2.10;;
73100;SDS011;61288;53.446;-2.266;2024-03-25T13:21:57;7.90;;;2.53;;
73100;SDS011;61288;53.446;-2.266;2024-03-25T13:24:23;6.88;;;2.20;;
73100;SDS011;61288;53.446;-2.266;2024-03-25T13:26:48;7.47;;;2.10;;
73100;SDS011;61288;53.446;-2.266;2024-03-25T13:29:14;9.65;;;2.30;;
73100;SDS011;61288;53.446;-2.266;2024-03-25T13:31:40;10.82;;;2.25;;
73100;SDS011;61288;53.446;-2.266;2024-03-25T13:34:05;6.10;;;2.15;;
73100;SDS011;61288;53.446;-2.266;2024-03-25T13:36:31;6.03;;;1.95;;
73100;SDS011;61288;53.446;-2.266;2024-03-25T13:38:57;8.35;;;2.42;;
73100;SDS011;61288;53.446;-2.266;2024-03-25T13:41:24;10.10;;;2.53;;
73100;SDS011;61288;53.446;-2.266;2024-03-25T13:43:51;10.07;;;2.30;;
73100;SDS011;61288;53.446;-2.266;2024-03-25T13:46:17;9.68;;;2.53;;
73100;SDS011;61288;53.446;-2.266;2024-03-25T13:48:42;8.05;;;2.45;;
73100;SDS011;61288;53.446;-2.266;2024-03-25T13:51:08;8.68;;;2.63;;
73100;SDS011;61288;53.446;-2.266;2024-03-25T13:53:34;8.32;;;2.08;;
73100;SDS011;61288;53.446;-2.266;2024-03-25T13:56:00;7.28;;;2.20;;
73100;SDS011;61288;53.446;-2.266;2024-03-25T13:58:26;9.02;;;2.75;;
73100;SDS011;61288;53.446;-2.266;2024-03-25T14:00:51;6.13;;;2.40;;
73100;SDS011;61288;53.446;-2.266;2024-03-25T14:03:17;7.90;;;2.58;;
73100;SDS011;61288;53.446;-2.266;2024-03-25T14:05:43;9.65;;;2.15;;
73100;SDS011;61288;53.446;-2.266;2024-03-25T14:08:09;6.47;;;2.28;;
73100;SDS011;61288;53.446;-2.266;2024-03-25T14:10:35;10.43;;;2.35;;
73100;SDS011;61288;53.446;-2.266;2024-03-25T14:13:01;9.18;;;2.55;;
73100;SDS011;61288;53.446;-2.266;2024-03-25T14:15:26;7.70;;;2.28;;
73100;SDS011;61288;53.446;-2.266;2024-03-25T14:17:52;8.48;;;2.13;;
73100;SDS011;61288;53.446;-2.266;2024-03-25T14:20:17;11.45;;;2.50;;
73100;SDS011;61288;53.446;-2.266;2024-03-25T14:22:43;9.38;;;2.30;;
73100;SDS011;61288;53.446;-2.266;2024-03-25T14:25:08;10.57;;;2.20;;
73100;SDS011;61288;53.446;-2.266;2024-03-25T14:27:34;8.27;;;2.30;;
73100;SDS011;61288;53.446;-2.266;2024-03-25T14:29:59;8.70;;;2.40;;